Time;durP1;ratioP1;P1;durP2;ratioP2;P2;SDS_P1;SDS_P2;PMS_P1;PMS_P2;Temp;Humidity;BMP_temperature;BMP_pressure;BME280_temperature;BME280_humidity;BME280_pressure;Samples;Min_cycle;Max_cycle;Signal;HPM_P1;HPM_P2
2023/12/26 00:00:07;;;;;;;1.00;0.90;;;;;;;15.43;62.11;99912.25;682855;29;1305;-91
2023/12/26 00:00:35;;;;;;;1.30;1.10;;;;;;;15.40;62.15;99906.13;682372;29;1294;-92
2023/12/26 00:01:01;;;;;;;1.20;1.00;;;;;;;15.35;62.19;99887.75;685251;28;1257;-93
2023/12/26 00:01:30;;;;;;;1.10;1.00;;;;;;;15.41;62.17;99905.25;685429;28;1337;-95
2023/12/26 00:01:54;;;;;;;1.10;1.00;;;;;;;15.44;62.28;99892.97;681399;29;1129;-92
2023/12/26 00:02:23;;;;;;;1.40;1.00;;;;;;;15.55;62.02;99927.06;682776;29;1408;-93
2023/12/26 00:02:54;;;;;;;4.20;1.27;;;;;;;15.43;62.17;99891.22;685462;28;1234;-94
2023/12/26 00:03:17;;;;;;;3.97;1.27;;;;;;;15.53;62.12;99907.81;680374;29;1364;-94
2023/12/26 00:03:38;;;;;;;1.30;1.20;;;;;;;15.44;61.96;99914.00;680279;29;1404;-94
2023/12/26 00:03:59;;;;;;;1.20;1.10;;;;;;;15.49;62.10;99900.84;676882;29;1270;-92
2023/12/26 00:04:23;;;;;;;1.20;1.10;;;;;;;15.39;61.93;99893.88;680035;29;1450;-94
2023/12/26 00:04:43;;;;;;;1.10;1.00;;;;;;;15.54;62.16;99921.84;680361;29;1337;-92
2023/12/26 00:05:10;;;;;;;1.10;0.90;;;;;;;15.26;62.29;99899.22;682348;29;1247;-92
2023/12/26 00:05:38;;;;;;;1.30;1.00;;;;;;;15.37;62.39;99928.09;679918;29;1328;-92
2023/12/26 00:06:10;;;;;;;1.30;1.20;;;;;;;15.44;62.44;99887.69;687808;28;1213;-94
2023/12/26 00:06:36;;;;;;;1.30;1.20;;;;;;;15.42;62.15;99899.13;681894;28;1293;-93
2023/12/26 00:07:00;;;;;;;1.20;1.10;;;;;;;15.40;62.20;99904.41;680075;29;1161;-92
2023/12/26 00:07:23;;;;;;;2.70;1.10;;;;;;;15.48;62.26;99888.56;680269;29;1373;-93
2023/12/26 00:07:49;;;;;;;2.75;1.10;;;;;;;15.44;62.19;99897.38;677564;29;1336;-93
2023/12/26 00:08:13;;;;;;;2.35;1.00;;;;;;;15.52;61.95;99884.16;679838;29;1219;-93
2023/12/26 00:08:41;;;;;;;1.30;1.00;;;;;;;15.49;61.94;99890.34;682133;28;1443;-94
2023/12/26 00:09:12;;;;;;;1.20;0.90;;;;;;;15.51;61.83;99895.56;680183;29;1325;-93
2023/12/26 00:09:42;;;;;;;1.00;0.90;;;;;;;15.37;61.98;99885.13;680060;29;1246;-92
2023/12/26 00:10:03;;;;;;;1.20;1.00;;;;;;;15.52;61.77;99910.44;679053;29;1454;-93
2023/12/26 00:10:29;;;;;;;1.20;1.00;;;;;;;15.47;61.88;99881.56;682729;29;1442;-94
2023/12/26 00:10:52;;;;;;;1.08;0.98;;;;;;;15.41;61.97;99918.41;680033;29;1294;-94
2023/12/26 00:11:30;;;;;;;1.08;0.98;;;;;;;15.35;62.19;99891.28;682795;29;1277;-94
2023/12/26 00:11:59;;;;;;;1.20;1.00;;;;;;;15.41;62.01;99876.34;682722;29;1280;-93
2023/12/26 00:12:20;;;;;;;3.03;1.00;;;;;;;15.41;62.10;99902.63;679727;29;1240;-93
2023/12/26 00:12:44;;;;;;;3.00;0.90;;;;;;;15.38;62.10;99882.50;682758;29;1253;-94
2023/12/26 00:13:11;;;;;;;3.90;1.10;;;;;;;15.41;62.25;99890.38;682557;29;1229;-94
2023/12/26 00:13:37;;;;;;;1.83;1.10;;;;;;;15.46;62.01;99892.97;680408;29;1217;-94
2023/12/26 00:14:02;;;;;;;1.00;0.90;;;;;;;15.38;61.96;99893.03;682740;29;1336;-93
2023/12/26 00:14:23;;;;;;;0.80;0.80;;;;;;;15.30;62.07;99916.72;690886;28;1282;-92
2023/12/26 00:15:05;;;;;;;1.00;0.90;;;;;;;15.35;62.06;99899.16;685315;28;1268;-95
2023/12/26 00:15:31;;;;;;;1.60;1.13;;;;;;;15.42;62.04;99897.38;685400;28;1324;-95
2023/12/26 00:15:58;;;;;;;1.90;1.10;;;;;;;15.46;62.09;99906.09;685477;28;1318;-93
2023/12/26 00:16:24;;;;;;;1.60;1.10;;;;;;;15.47;61.95;99892.97;677712;29;1446;-95
2023/12/26 00:16:58;;;;;;;1.10;1.00;;;;;;;15.37;62.09;99899.16;677683;29;1199;-96
2023/12/26 00:17:23;;;;;;;1.00;0.90;;;;;;;15.40;61.94;99885.09;685283;28;1411;-92
2023/12/26 00:17:47;;;;;;;1.00;0.90;;;;;;;15.32;62.02;99888.66;680256;29;1301;-93
2023/12/26 00:18:08;;;;;;;1.10;0.98;;;;;;;15.28;62.07;99889.56;677645;29;1409;-93
2023/12/26 00:18:37;;;;;;;1.00;0.90;;;;;;;15.40;62.28;99904.41;677697;29;1391;-94
2023/12/26 00:19:01;;;;;;;1.00;0.90;;;;;;;15.42;62.11;99884.22;682903;29;1198;-93
2023/12/26 00:19:35;;;;;;;1.08;0.98;;;;;;;15.41;62.07;99881.59;680273;29;1451;-92
2023/12/26 00:20:01;;;;;;;1.83;1.10;;;;;;;15.20;62.23;99888.72;680053;29;1288;-94
2023/12/26 00:20:23;;;;;;;1.90;1.10;;;;;;;15.11;62.38;99909.78;682770;28;1238;-90
2023/12/26 00:20:51;;;;;;;1.80;1.10;;;;;;;15.16;62.59;99903.63;680279;29;1280;-94
2023/12/26 00:21:14;;;;;;;1.10;1.00;;;;;;;15.25;62.40;99880.81;681347;29;1351;-94
2023/12/26 00:21:43;;;;;;;1.50;1.00;;;;;;;15.29;62.33;99904.44;682796;29;1259;-95
2023/12/26 00:22:09;;;;;;;1.83;1.00;;;;;;;15.23;62.31;99887.84;679851;28;1194;-94
2023/12/26 00:22:30;;;;;;;1.40;1.00;;;;;;;15.28;62.16;99892.19;683087;28;1276;-93
2023/12/26 00:22:51;;;;;;;1.80;1.20;;;;;;;15.26;62.37;99893.97;680137;29;1249;-93
2023/12/26 00:23:13;;;;;;;1.60;1.30;;;;;;;15.20;62.38;99896.59;682414;29;1289;-92
2023/12/26 00:23:44;;;;;;;1.70;1.30;;;;;;;15.35;62.04;99899.16;680418;29;1222;-94
2023/12/26 00:24:13;;;;;;;1.10;1.00;;;;;;;15.29;62.21;99888.69;678998;29;1327;-94
2023/12/26 00:24:40;;;;;;;1.30;1.02;;;;;;;15.32;62.13;99888.66;683183;29;1283;-95
2023/12/26 00:25:09;;;;;;;1.30;1.10;;;;;;;15.39;62.05;99888.63;682768;29;1222;-96
2023/12/26 00:26:14;;;;;;;1.55;1.15;;;;;;;15.26;62.21;99877.31;679781;29;1298;-93
2023/12/26 00:26:38;;;;;;;1.60;1.20;;;;;;;15.28;62.17;99904.44;684823;28;1277;-94
2023/12/26 00:27:05;;;;;;;1.48;1.20;;;;;;;15.24;62.19;99885.19;682557;29;1338;-93
2023/12/26 00:27:26;;;;;;;1.10;1.00;;;;;;;15.19;62.16;99879.06;682086;28;1396;-91
2023/12/26 00:27:47;;;;;;;1.80;1.10;;;;;;;15.21;62.46;99878.22;682772;28;1235;-96
2023/12/26 00:28:13;;;;;;;2.40;1.10;;;;;;;15.24;62.27;99885.19;680047;29;1214;-94
2023/12/26 00:28:49;;;;;;;2.53;1.02;;;;;;;15.22;62.23;99876.44;681143;28;1270;-93
2023/12/26 00:29:14;;;;;;;1.30;1.00;;;;;;;15.29;62.33;99879.91;688219;28;1347;-95
2023/12/26 00:29:37;;;;;;;1.10;1.00;;;;;;;15.34;62.12;99876.41;685641;28;1442;-95
2023/12/26 00:30:01;;;;;;;1.00;0.90;;;;;;;15.25;62.28;99894.84;682882;29;1408;-94
2023/12/26 00:30:22;;;;;;;1.00;0.90;;;;;;;15.27;62.04;99900.06;677429;29;1638;-92
2023/12/26 00:30:52;;;;;;;1.10;0.90;;;;;;;15.21;62.27;99878.22;682794;29;1228;-95
2023/12/26 00:31:16;;;;;;;1.05;0.95;;;;;;;15.29;62.03;99933.38;682775;28;1741;-93
2023/12/26 00:31:40;;;;;;;1.38;1.00;;;;;;;15.16;62.10;99877.34;684884;28;1390;-91
2023/12/26 00:32:06;;;;;;;1.65;1.20;;;;;;;15.22;62.17;99897.47;677432;29;1444;-93
2023/12/26 00:32:40;;;;;;;1.90;1.30;;;;;;;15.29;62.23;99885.16;680009;29;1269;-92
2023/12/26 00:33:07;;;;;;;1.48;1.08;;;;;;;15.25;62.06;99886.09;682826;29;1369;-92
2023/12/26 00:33:40;;;;;;;3.70;1.10;;;;;;;15.30;62.04;99924.59;680182;29;1272;-92
2023/12/26 00:34:09;;;;;;;5.60;1.10;;;;;;;15.23;62.20;99877.34;680120;29;1314;-94
2023/12/26 00:34:30;;;;;;;4.15;1.10;;;;;;;15.18;62.24;99896.59;683835;28;1193;-93
2023/12/26 00:34:54;;;;;;;4.67;1.20;;;;;;;15.19;62.34;99877.31;677474;29;1147;-94
2023/12/26 00:35:15;;;;;;;4.50;1.40;;;;;;;15.21;62.22;99877.34;680216;29;1233;-91
2023/12/26 00:35:49;;;;;;;3.97;1.50;;;;;;;15.10;62.53;99864.22;682642;28;1541;-92
2023/12/26 00:36:19;;;;;;;2.72;1.10;;;;;;;15.21;62.37;99903.63;677594;29;1269;-93
2023/12/26 00:36:42;;;;;;;1.08;0.98;;;;;;;15.24;62.50;99889.59;677394;29;1316;-92
2023/12/26 00:37:03;;;;;;;1.20;1.10;;;;;;;15.13;62.48;99881.72;680499;29;1393;-91
2023/12/26 00:37:26;;;;;;;1.20;1.00;;;;;;;15.05;62.43;99895.78;683093;29;1539;-92
2023/12/26 00:37:54;;;;;;;1.00;0.90;;;;;;;15.17;62.26;99878.19;686144;28;1390;-94
2023/12/26 00:38:24;;;;;;;1.10;0.95;;;;;;;15.12;62.14;99864.22;682570;29;1292;-94
2023/12/26 00:38:53;;;;;;;1.40;1.20;;;;;;;15.33;62.06;99895.69;680815;29;1195;-94
2023/12/26 00:39:22;;;;;;;1.30;1.20;;;;;;;15.27;62.06;99885.19;682938;29;1433;-95
2023/12/26 00:39:45;;;;;;;1.20;1.10;;;;;;;15.21;61.95;99882.59;680705;28;1245;-92
2023/12/26 00:40:07;;;;;;;1.20;1.10;;;;;;;15.19;61.98;99887.81;680422;29;1287;-92
2023/12/26 00:40:41;;;;;;;1.70;1.00;;;;;;;15.22;62.10;99881.72;685891;28;1296;-94
2023/12/26 00:41:10;;;;;;;1.90;1.05;;;;;;;15.14;61.99;99892.25;681384;29;1249;-93
2023/12/26 00:41:40;;;;;;;1.50;1.20;;;;;;;15.07;62.26;99873.00;682697;29;1308;-94
2023/12/26 00:42:16;;;;;;;1.38;1.08;;;;;;;15.26;62.19;99880.81;683381;29;1507;-93
2023/12/26 00:42:42;;;;;;;1.10;1.00;;;;;;;15.16;62.27;99907.97;678835;29;1299;-93
2023/12/26 00:43:11;;;;;;;1.20;1.10;;;;;;;15.31;62.02;99901.81;683520;29;1288;-93
2023/12/26 00:43:37;;;;;;;1.40;1.00;;;;;;;15.18;62.15;99879.97;680261;29;1393;-92
2023/12/26 00:43:58;;;;;;;1.40;0.90;;;;;;;15.16;62.34;99913.25;677974;29;1103;-90
2023/12/26 00:44:22;;;;;;;1.60;1.00;;;;;;;14.95;62.38;99888.81;680645;29;1155;-94
2023/12/26 00:44:43;;;;;;;1.42;1.08;;;;;;;15.06;62.52;99902.78;680814;29;1366;-96
2023/12/26 00:45:14;;;;;;;2.00;1.10;;;;;;;15.03;62.31;99900.19;680679;29;1243;-93
2023/12/26 00:45:35;;;;;;;2.28;1.10;;;;;;;15.14;62.25;99892.25;678349;29;1110;-93
2023/12/26 00:46:03;;;;;;;2.30;1.10;;;;;;;15.16;62.28;99892.22;680721;29;1408;-95
2023/12/26 00:46:33;;;;;;;1.20;1.00;;;;;;;15.11;62.12;99896.63;683446;29;1505;-95
2023/12/26 00:46:57;;;;;;;1.60;1.05;;;;;;;15.18;62.10;99883.44;680638;29;1223;-95
2023/12/26 00:47:20;;;;;;;1.60;1.00;;;;;;;15.18;61.98;99886.06;686249;28;1294;-95
2023/12/26 00:47:47;;;;;;;1.17;0.80;;;;;;;15.31;61.86;99879.03;680945;29;1229;-95
2023/12/26 00:48:08;;;;;;;1.10;0.88;;;;;;;15.28;61.76;99876.44;683369;29;1311;-95
2023/12/26 00:48:28;;;;;;;1.90;1.05;;;;;;;15.33;61.89;99893.06;680853;29;1923;-96
2023/12/26 00:48:49;;;;;;;2.10;1.20;;;;;;;15.28;61.83;99876.44;680850;29;1278;-93
2023/12/26 00:49:10;;;;;;;1.90;1.10;;;;;;;15.24;61.75;99894.84;680857;29;1081;-94
2023/12/26 00:49:31;;;;;;;1.20;1.00;;;;;;;15.19;61.78;99885.19;680807;29;1309;-94
2023/12/26 00:49:55;;;;;;;1.00;0.88;;;;;;;15.15;62.01;99875.59;685985;28;1155;-95
2023/12/26 00:50:21;;;;;;;1.20;0.98;;;;;;;15.19;62.01;99892.22;688832;28;1248;-94
2023/12/26 00:50:46;;;;;;;1.15;0.95;;;;;;;15.15;61.99;99890.47;682314;29;1487;-93
2023/12/26 00:51:12;;;;;;;1.20;1.00;;;;;;;15.17;61.97;99896.59;685664;28;1438;-93
2023/12/26 00:53:13;;;;;;;1.98;1.20;;;;;;;15.19;62.09;99886.97;685961;28;1264;-95
2023/12/26 00:54:02;;;;;;;1.70;1.10;;;;;;;15.16;61.95;99881.69;685776;28;1405;-93
2023/12/26 00:54:28;;;;;;;1.10;1.00;;;;;;;15.18;61.91;99880.81;678190;29;1377;-94
2023/12/26 00:54:56;;;;;;;1.10;1.00;;;;;;;15.16;61.83;99886.97;680819;29;1276;-95
2023/12/26 00:55:25;;;;;;;1.00;0.90;;;;;;;15.20;61.87;99915.00;680810;28;1259;-93
2023/12/26 00:55:49;;;;;;;1.02;0.93;;;;;;;15.13;62.00;99892.25;680852;29;1209;-93
2023/12/26 00:56:24;;;;;;;1.30;1.10;;;;;;;15.07;62.19;99901.03;683212;29;1197;-92
2023/12/26 00:56:47;;;;;;;1.83;1.17;;;;;;;15.11;62.01;99883.50;683228;28;1322;-95
2023/12/26 00:57:10;;;;;;;2.00;1.23;;;;;;;15.16;62.03;99934.25;677911;29;1274;-93
2023/12/26 00:57:35;;;;;;;2.55;1.10;;;;;;;15.10;61.99;99887.88;686151;28;1128;-94
2023/12/26 00:58:04;;;;;;;2.50;1.02;;;;;;;15.21;61.98;99895.72;680814;29;1325;-94
2023/12/26 00:58:35;;;;;;;2.53;1.10;;;;;;;15.21;61.88;99888.75;678205;29;1172;-95
2023/12/26 00:59:01;;;;;;;1.02;0.90;;;;;;;15.23;61.85;99904.47;680541;29;1348;-93
2023/12/26 00:59:36;;;;;;;1.10;1.00;;;;;;;15.14;61.80;99886.09;680515;29;1291;-96
2023/12/26 01:00:07;;;;;;;1.00;0.90;;;;;;;15.13;62.09;99879.09;678057;29;1199;-95
2023/12/26 01:00:28;;;;;;;1.00;0.90;;;;;;;15.11;61.91;99873.00;678224;29;1259;-94
2023/12/26 01:00:54;;;;;;;1.20;1.00;;;;;;;15.17;61.84;99899.22;681629;29;1706;-94
2023/12/26 01:01:25;;;;;;;1.30;1.10;;;;;;;15.12;61.92;99890.50;685957;28;1369;-93
2023/12/26 01:01:50;;;;;;;1.10;1.00;;;;;;;15.15;61.90;99886.09;683228;28;1373;-94
2023/12/26 01:02:21;;;;;;;;;;;;;;;;;;;;;
2023/12/26 01:03:06;;;;;;;1.15;1.05;;;;;;;15.10;61.86;99889.66;683378;29;1248;-95
2023/12/26 01:03:30;;;;;;;1.58;1.17;;;;;;;15.20;61.88;99909.72;683197;28;1323;-95
2023/12/26 01:03:57;;;;;;;1.50;1.10;;;;;;;15.22;61.92;99900.09;680701;29;1360;-94
2023/12/26 01:04:35;;;;;;;1.40;1.10;;;;;;;15.20;61.71;99925.50;683175;29;1201;-95
2023/12/26 01:04:58;;;;;;;2.80;1.20;;;;;;;15.16;61.99;99900.97;685784;28;1255;-96
2023/12/26 01:05:19;;;;;;;2.70;1.10;;;;;;;15.15;61.84;99894.00;683450;28;1194;-94
2023/12/26 01:05:40;;;;;;;2.30;1.00;;;;;;;15.15;61.79;99890.47;686051;28;1288;-93
2023/12/26 01:06:02;;;;;;;1.20;1.00;;;;;;;15.19;61.73;99892.22;683523;29;1308;-94
2023/12/26 01:06:23;;;;;;;1.10;1.00;;;;;;;15.15;61.73;99882.59;680787;29;1210;-94
2023/12/26 01:06:51;;;;;;;1.10;1.00;;;;;;;15.29;61.66;99914.97;680906;29;1268;-94
2023/12/26 01:07:12;;;;;;;1.10;0.95;;;;;;;15.19;62.06;99942.16;680691;29;1375;-93
2023/12/26 01:07:33;;;;;;;2.00;1.20;;;;;;;15.17;61.87;99901.84;684230;28;1616;-93
2023/12/26 01:08:08;;;;;;;2.00;1.10;;;;;;;15.22;61.75;99902.72;682987;29;1151;-92
2023/12/26 01:08:34;;;;;;;1.90;0.80;;;;;;;15.17;61.82;99933.38;685201;28;1507;-94
2023/12/26 01:09:06;;;;;;;1.90;0.80;;;;;;;15.20;61.69;99910.59;680534;29;1265;-94
2023/12/26 01:09:30;;;;;;;1.13;0.73;;;;;;;15.15;61.76;99900.97;678290;29;1219;-93
2023/12/26 01:09:54;;;;;;;1.00;0.80;;;;;;;15.18;61.83;99903.63;677890;29;1356;-93
2023/12/26 01:10:24;;;;;;;1.10;0.90;;;;;;;15.20;61.73;99921.09;678085;29;1303;-94
2023/12/26 01:11:07;;;;;;;1.20;0.90;;;;;;;15.04;61.93;99915.06;685757;28;1283;-94
2023/12/26 01:11:33;;;;;;;1.17;1.05;;;;;;;15.19;61.66;99923.75;683269;29;1117;-92
2023/12/26 01:11:56;;;;;;;1.70;1.20;;;;;;;15.01;61.83;99928.19;685893;28;1279;-92
2023/12/26 01:12:19;;;;;;;2.17;1.20;;;;;;;15.11;61.94;99904.53;680506;29;1258;-94
2023/12/26 01:12:53;;;;;;;;;;;;;;;;;;;;;
2023/12/26 01:13:17;;;;;;;1.10;1.00;;;;;;;14.98;62.05;99928.22;683481;29;1436;-95
2023/12/26 01:13:41;;;;;;;1.40;1.02;;;;;;;15.03;62.18;99923.81;683085;28;1206;-92
2023/12/26 01:14:02;;;;;;;1.30;0.98;;;;;;;14.99;62.15;99935.19;683351;28;1185;-94
2023/12/26 01:14:28;;;;;;;1.13;0.90;;;;;;;15.14;62.07;99915.00;685942;28;1370;-93
2023/12/26 01:14:52;;;;;;;0.85;0.85;;;;;;;14.99;61.97;99905.44;686455;28;1417;-95
2023/12/26 01:15:16;;;;;;;1.42;1.10;;;;;;;15.02;62.08;99901.06;683125;29;1278;-94
2023/12/26 01:15:41;;;;;;;2.10;1.10;;;;;;;15.17;62.09;99922.88;685684;28;1342;-93
2023/12/26 01:16:05;;;;;;;2.22;1.00;;;;;;;15.02;61.82;99923.81;680597;29;1356;-96
2023/12/26 01:16:33;;;;;;;1.38;0.93;;;;;;;14.99;62.31;99927.31;683296;28;1212;-95
2023/12/26 01:17:02;;;;;;;1.05;0.90;;;;;;;14.97;62.29;99923.84;683274;29;1379;-94
2023/12/26 01:17:26;;;;;;;1.20;0.90;;;;;;;14.83;62.29;99915.13;678307;29;1130;-92
2023/12/26 01:17:58;;;;;;;1.20;1.00;;;;;;;14.96;62.54;99936.97;680696;29;1459;-92
2023/12/26 01:18:24;;;;;;;1.48;1.10;;;;;;;14.91;62.30;99924.75;688495;28;1384;-95
2023/12/26 01:18:48;;;;;;;1.38;1.08;;;;;;;14.94;62.25;99931.75;686067;28;1216;-95
2023/12/26 01:19:09;;;;;;;1.45;1.10;;;;;;;14.99;62.29;99945.72;683218;29;1368;-92
2023/12/26 01:19:38;;;;;;;2.72;1.10;;;;;;;14.92;62.36;99934.38;680155;29;1314;-93
2023/12/26 01:19:59;;;;;;;2.72;0.95;;;;;;;14.88;62.27;99924.72;685884;28;1451;-93
2023/12/26 01:20:23;;;;;;;2.80;1.00;;;;;;;14.92;62.34;99915.09;685934;28;1212;-93
2023/12/26 01:20:48;;;;;;;1.55;0.90;;;;;;;15.08;61.98;99926.44;685834;28;1438;-94
2023/12/26 01:21:09;;;;;;;1.42;0.90;;;;;;;15.22;62.17;99934.28;683293;29;1032;-94
2023/12/26 01:21:30;;;;;;;1.40;0.90;;;;;;;15.14;61.71;99920.25;680647;29;1424;-95
2023/12/26 01:21:51;;;;;;;0.90;0.80;;;;;;;15.19;61.63;99929.00;680614;29;1206;-93
2023/12/26 01:22:12;;;;;;;0.80;0.80;;;;;;;15.01;62.02;99919.44;680460;29;1188;-94
2023/12/26 01:22:46;;;;;;;5.22;1.00;;;;;;;15.00;61.87;99915.06;680836;29;1240;-95
2023/12/26 01:23:09;;;;;;;8.50;1.00;;;;;;;15.15;61.91;99932.53;675369;29;1261;-94
2023/12/26 01:23:34;;;;;;;4.20;0.90;;;;;;;15.07;62.00;99924.69;680881;29;1151;-93
2023/12/26 01:23:57;;;;;;;1.23;0.90;;;;;;;14.94;62.02;99926.50;683880;28;1238;-91
2023/12/26 01:24:26;;;;;;;1.00;0.90;;;;;;;14.99;62.27;99940.47;685713;28;1164;-92
2023/12/26 01:24:50;;;;;;;0.90;0.80;;;;;;;14.97;62.06;99929.09;680499;28;1251;-93
2023/12/26 01:25:31;;;;;;;1.10;0.80;;;;;;;14.94;62.22;99913.34;685667;28;1200;-92
2023/12/26 01:26:01;;;;;;;3.70;1.10;;;;;;;14.89;62.36;99902.84;680551;29;1231;-95
2023/12/26 01:26:30;;;;;;;3.78;1.20;;;;;;;14.95;62.10;99915.09;680730;29;1169;-95
2023/12/26 01:26:51;;;;;;;1.25;0.90;;;;;;;15.00;62.01;99922.97;682493;29;1568;-95
2023/12/26 01:27:17;;;;;;;1.30;1.00;;;;;;;14.99;62.09;99914.19;683349;29;1258;-95
2023/12/26 01:27:44;;;;;;;1.20;1.10;;;;;;;15.02;62.06;99927.34;685732;28;1295;-94
2023/12/26 01:28:18;;;;;;;1.10;1.00;;;;;;;15.00;61.95;99922.97;685759;28;1396;-94
2023/12/26 01:28:55;;;;;;;1.30;0.90;;;;;;;15.02;61.97;99919.44;683264;28;1399;-94
2023/12/26 01:29:18;;;;;;;1.40;1.00;;;;;;;14.97;61.86;99934.34;683306;29;1234;-94
2023/12/26 01:29:41;;;;;;;0.85;0.80;;;;;;;15.01;62.02;99933.44;682894;29;1266;-95
2023/12/26 01:30:08;;;;;;;0.95;0.90;;;;;;;15.01;61.80;99920.31;683147;28;1265;-94
2023/12/26 01:30:29;;;;;;;4.00;1.00;;;;;;;15.04;61.86;99935.19;683363;29;1325;-93
2023/12/26 01:30:50;;;;;;;4.00;1.00;;;;;;;15.03;61.66;99944.84;677946;29;1180;-92
2023/12/26 01:31:18;;;;;;;2.08;1.00;;;;;;;14.96;61.82;99931.72;683205;29;1503;-95
2023/12/26 01:31:46;;;;;;;1.10;0.90;;;;;;;15.00;61.87;99942.19;686180;28;1296;-96
2023/12/26 01:32:07;;;;;;;1.10;0.80;;;;;;;14.98;62.06;99922.94;683099;28;1272;-93
2023/12/26 01:32:29;;;;;;;3.38;0.90;;;;;;;15.04;61.86;99933.44;686053;28;1196;-95
2023/12/26 01:33:00;;;;;;;3.50;1.00;;;;;;;15.06;61.96;99926.41;683197;29;1307;-94
2023/12/26 01:33:24;;;;;;;1.15;1.00;;;;;;;15.04;61.91;99915.06;685973;28;1357;-96
2023/12/26 01:33:48;;;;;;;1.10;0.95;;;;;;;15.08;61.78;99943.03;686123;28;1242;-93
2023/12/26 01:34:09;;;;;;;1.20;1.00;;;;;;;14.99;61.95;99906.31;680566;29;1230;-95
2023/12/26 01:34:30;;;;;;;1.08;0.85;;;;;;;15.01;61.69;99927.31;678107;29;1324;-95
2023/12/26 01:34:54;;;;;;;1.10;0.82;;;;;;;15.04;61.79;99916.78;680686;29;1309;-95
2023/12/26 01:35:18;;;;;;;1.00;0.80;;;;;;;15.00;61.75;99922.97;683133;28;1316;-93
2023/12/26 01:35:42;;;;;;;1.10;0.90;;;;;;;14.97;61.92;99929.09;684442;28;1331;-94
2023/12/26 01:36:06;;;;;;;1.20;0.90;;;;;;;14.96;61.79;99914.22;683144;29;1399;-94
2023/12/26 01:36:32;;;;;;;1.15;0.82;;;;;;;14.88;62.06;99905.50;680557;29;1387;-94
2023/12/26 01:37:03;;;;;;;1.00;0.80;;;;;;;14.88;62.08;99924.72;685786;28;1404;-93
2023/12/26 01:37:27;;;;;;;0.90;0.75;;;;;;;14.88;62.19;99913.38;686180;28;1476;-94
2023/12/26 01:37:48;;;;;;;1.10;0.90;;;;;;;14.78;62.24;99884.50;677577;29;1422;-95
2023/12/26 01:38:13;;;;;;;1.65;1.08;;;;;;;14.89;62.07;99904.59;678010;29;1405;-94
2023/12/26 01:38:37;;;;;;;1.60;1.00;;;;;;;14.86;62.28;99925.66;683323;29;1260;-95
2023/12/26 01:39:02;;;;;;;3.60;0.95;;;;;;;14.88;61.87;99921.25;685848;28;1298;-93
2023/12/26 01:39:27;;;;;;;3.75;0.90;;;;;;;14.90;62.05;99932.63;683404;29;1213;-94
2023/12/26 01:39:49;;;;;;;1.75;0.90;;;;;;;14.83;61.89;99909.88;680606;29;1499;-95
2023/12/26 01:40:11;;;;;;;1.60;0.98;;;;;;;14.85;61.90;99931.75;680316;29;1433;-95
2023/12/26 01:40:34;;;;;;;0.80;0.80;;;;;;;14.71;62.20;99916.94;680335;29;1246;-95
2023/12/26 01:40:55;;;;;;;0.93;0.80;;;;;;;14.74;62.43;99930.03;680558;29;1240;-93
2023/12/26 01:41:20;;;;;;;1.00;0.80;;;;;;;14.88;62.27;99918.63;680580;28;1197;-94
2023/12/26 01:41:46;;;;;;;1.00;0.80;;;;;;;14.78;62.19;99918.66;683198;29;1345;-95
2023/12/26 01:42:08;;;;;;;0.80;0.70;;;;;;;14.77;62.21;99919.50;683109;28;1492;-94
2023/12/26 01:42:29;;;;;;;0.88;0.70;;;;;;;14.77;62.34;99937.91;680527;28;1308;-93
2023/12/26 01:42:53;;;;;;;1.20;0.80;;;;;;;14.82;62.20;99908.13;680560;29;1208;-96
2023/12/26 01:43:14;;;;;;;1.40;0.90;;;;;;;14.78;62.13;99930.91;678028;29;1350;-93
2023/12/26 01:43:38;;;;;;;1.20;0.90;;;;;;;14.77;62.23;99931.78;682903;28;1500;-95
2023/12/26 01:44:10;;;;;;;0.88;0.70;;;;;;;14.82;62.43;99934.41;683266;29;1312;-93
2023/12/26 01:44:38;;;;;;;0.80;0.80;;;;;;;14.88;62.10;99918.63;678054;29;1213;-95
2023/12/26 01:45:08;;;;;;;0.90;0.80;;;;;;;14.90;62.18;99932.63;680406;29;1349;-94
2023/12/26 01:45:34;;;;;;;1.20;0.80;;;;;;;14.81;62.04;99920.38;680468;29;1203;-94
2023/12/26 01:46:00;;;;;;;1.00;0.80;;;;;;;14.86;62.09;99933.53;680609;29;1292;-94
2023/12/26 01:46:23;;;;;;;1.02;0.80;;;;;;;14.80;61.82;99908.13;680375;29;1356;-93
2023/12/26 01:46:50;;;;;;;1.10;0.80;;;;;;;14.83;62.05;99915.13;680580;29;1509;-93
2023/12/26 01:47:12;;;;;;;1.10;0.70;;;;;;;14.79;62.15;99899.41;680571;29;1162;-93
2023/12/26 01:47:37;;;;;;;0.80;0.70;;;;;;;14.88;62.16;99923.88;682654;28;1380;-92
2023/12/26 01:48:02;;;;;;;0.80;0.70;;;;;;;14.79;62.05;99909.91;685861;28;1255;-93
2023/12/26 01:48:27;;;;;;;1.00;0.80;;;;;;;14.84;62.00;99914.25;683170;28;1903;-93
2023/12/26 01:48:55;;;;;;;0.90;0.70;;;;;;;14.91;61.89;99918.59;680384;28;1253;-94
2023/12/26 01:49:24;;;;;;;0.70;0.70;;;;;;;14.95;62.07;99920.34;688386;28;1278;-93
2023/12/26 01:49:47;;;;;;;1.08;0.80;;;;;;;14.94;61.71;99913.34;683041;29;1327;-93
2023/12/26 01:50:09;;;;;;;1.58;0.93;;;;;;;14.89;61.87;99912.50;675250;29;1104;-95
2023/12/26 01:50:39;;;;;;;2.70;0.90;;;;;;;14.88;61.77;99918.63;681175;29;1281;-93
2023/12/26 01:51:08;;;;;;;2.38;0.90;;;;;;;14.88;61.82;99931.75;683159;29;1283;-94
2023/12/26 01:51:37;;;;;;;0.70;0.70;;;;;;;14.77;62.04;99939.66;682148;29;1259;-92
2023/12/26 01:51:59;;;;;;;0.95;0.70;;;;;;;14.72;62.07;99910.78;680750;29;1244;-94
2023/12/26 01:52:22;;;;;;;1.30;0.90;;;;;;;14.88;61.95;99948.38;682898;29;1499;-93
2023/12/26 01:52:49;;;;;;;1.30;0.90;;;;;;;14.88;62.13;99929.13;680664;28;1137;-93
2023/12/26 01:53:14;;;;;;;1.15;0.80;;;;;;;14.79;62.02;99917.78;680522;29;1204;-94
2023/12/26 01:53:39;;;;;;;1.40;0.80;;;;;;;14.79;61.68;99917.78;683217;29;1287;-92
2023/12/26 01:54:05;;;;;;;1.50;0.85;;;;;;;14.80;62.04;99919.53;683220;29;1270;-93
2023/12/26 01:54:31;;;;;;;0.90;0.80;;;;;;;14.86;61.75;99920.38;680596;29;1398;-93
2023/12/26 01:54:54;;;;;;;1.30;0.90;;;;;;;14.79;61.87;99938.78;680313;28;1414;-93
2023/12/26 01:55:17;;;;;;;1.30;0.80;;;;;;;14.82;61.93;99923.88;683250;28;1520;-94
2023/12/26 01:55:41;;;;;;;1.02;0.80;;;;;;;14.82;62.11;99921.25;683353;28;1229;-94
2023/12/26 01:56:13;;;;;;;0.90;0.80;;;;;;;14.76;61.91;99936.16;683192;28;1424;-94
2023/12/26 01:56:35;;;;;;;0.93;0.82;;;;;;;14.85;62.08;99929.13;683207;28;1377;-93
2023/12/26 01:56:56;;;;;;;1.20;1.00;;;;;;;14.82;61.92;99923.88;682879;28;1309;-94
2023/12/26 01:57:18;;;;;;;1.00;0.90;;;;;;;14.80;61.81;99943.16;680692;29;1324;-94
2023/12/26 01:57:39;;;;;;;1.10;0.80;;;;;;;14.78;61.86;99933.53;684720;28;1315;-93
2023/12/26 01:58:01;;;;;;;0.90;0.80;;;;;;;14.71;62.08;99937.94;682562;29;1299;-93
2023/12/26 01:58:27;;;;;;;0.98;0.80;;;;;;;14.78;62.08;99930.91;683193;28;1309;-95
2023/12/26 01:58:49;;;;;;;0.90;0.80;;;;;;;14.82;61.96;99930.03;685843;28;1305;-92
2023/12/26 01:59:11;;;;;;;0.95;0.77;;;;;;;14.84;62.07;99951.00;683002;29;1304;-91
2023/12/26 01:59:36;;;;;;;1.10;0.80;;;;;;;14.73;61.87;99930.03;683138;29;1297;-94
2023/12/26 01:59:57;;;;;;;1.20;0.80;;;;;;;14.88;62.04;99935.25;688522;28;1211;-94
2023/12/26 02:00:18;;;;;;;0.93;0.80;;;;;;;14.82;62.22;99929.16;683316;28;1165;-94
2023/12/26 02:00:40;;;;;;;1.08;0.88;;;;;;;14.77;62.01;99945.78;681996;29;1181;-94
2023/12/26 02:01:05;;;;;;;1.00;0.80;;;;;;;14.68;62.14;99922.16;685908;28;1365;-94
2023/12/26 02:01:26;;;;;;;0.93;0.80;;;;;;;14.74;61.99;99953.66;684961;28;1344;-92
2023/12/26 02:01:57;;;;;;;0.80;0.75;;;;;;;14.76;62.05;99937.91;685737;28;1232;-95
2023/12/26 02:02:30;;;;;;;1.00;0.80;;;;;;;14.77;62.01;99935.28;683287;29;1159;-96
2023/12/26 02:02:54;;;;;;;1.02;0.80;;;;;;;14.87;61.94;99957.13;679541;29;1175;-93
2023/12/26 02:03:16;;;;;;;0.98;0.80;;;;;;;14.85;61.83;99937.88;680545;29;1216;-92
2023/12/26 02:03:42;;;;;;;0.80;0.77;;;;;;;14.76;62.05;99938.78;683105;29;1184;-94
2023/12/26 02:04:11;;;;;;;0.98;0.80;;;;;;;14.75;62.07;99926.53;685760;28;1414;-95
2023/12/26 02:04:33;;;;;;;1.20;0.90;;;;;;;14.77;61.91;99934.41;688555;28;1590;-95
2023/12/26 02:04:57;;;;;;;1.30;1.00;;;;;;;14.85;61.97;99955.38;680678;29;1229;-96
2023/12/26 02:05:21;;;;;;;1.02;0.88;;;;;;;14.84;61.79;99966.78;683312;29;1233;-92
2023/12/26 02:05:49;;;;;;;0.98;0.88;;;;;;;14.73;61.83;99935.28;683192;29;1237;-94
2023/12/26 02:06:15;;;;;;;1.40;0.90;;;;;;;14.77;61.89;99951.03;680501;29;1184;-94
2023/12/26 02:06:49;;;;;;;1.40;1.00;;;;;;;14.82;61.94;99944.91;685772;28;1216;-94
2023/12/26 02:07:17;;;;;;;0.70;0.70;;;;;;;14.94;61.82;99947.50;687736;28;1146;-94
2023/12/26 02:07:39;;;;;;;0.70;0.60;;;;;;;14.85;61.60;99921.25;682736;28;1412;-92